Time;durP1;ratioP1;P1;durP2;ratioP2;P2;SDS_P1;SDS_P2;PMS_P1;PMS_P2;Temp;Humidity;BMP_temperature;BMP_pressure;BME280_temperature;BME280_humidity;BME280_pressure;Samples;Min_cycle;Max_cycle;Signal;HPM_P1;HPM_P2
2022/05/08 00:01:16;;;;;;;2.22;2.03;;;14.60;85.00;;;;;;626741;229;26826;-69
2022/05/08 00:03:43;;;;;;;3.15;2.40;;;14.60;85.40;;;;;;626536;229;26589;-69
2022/05/08 00:06:11;;;;;;;3.35;2.60;;;14.60;85.50;;;;;;626413;229;26793;-69
2022/05/08 00:08:38;;;;;;;2.45;2.10;;;14.60;85.70;;;;;;626314;229;26562;-69
2022/05/08 00:11:06;;;;;;;3.92;2.75;;;14.50;85.70;;;;;;626405;229;26554;-69
2022/05/08 00:13:35;;;;;;;3.15;2.10;;;14.50;86.00;;;;;;626352;229;26594;-69
2022/05/08 00:16:01;;;;;;;2.22;2.12;;;14.40;86.10;;;;;;626276;229;26566;-69
2022/05/08 00:18:29;;;;;;;2.20;2.10;;;14.40;86.10;;;;;;626272;229;26567;-69
2022/05/08 00:20:56;;;;;;;2.62;2.28;;;14.40;86.00;;;;;;626068;230;26562;-69
2022/05/08 00:23:23;;;;;;;2.10;2.00;;;14.30;86.00;;;;;;626077;229;26822;-69
2022/05/08 00:25:50;;;;;;;3.00;2.55;;;14.40;86.10;;;;;;626231;230;26555;-69
2022/05/08 00:28:17;;;;;;;2.70;2.50;;;14.40;85.80;;;;;;626265;230;26789;-76
2022/05/08 00:30:45;;;;;;;2.40;2.20;;;14.40;86.00;;;;;;626223;229;26552;-76
2022/05/08 00:33:12;;;;;;;3.05;2.85;;;14.40;85.80;;;;;;626255;230;27249;-75
2022/05/08 00:35:39;;;;;;;5.30;2.80;;;14.40;85.50;;;;;;626226;230;26562;-75
2022/05/08 00:38:08;;;;;;;2.30;2.20;;;14.50;85.70;;;;;;626299;230;26818;-75
2022/05/08 00:40:35;;;;;;;2.20;2.10;;;14.40;85.70;;;;;;626141;230;26552;-76
2022/05/08 00:43:13;;;;;;;4.25;2.37;;;14.50;85.80;;;;;;626091;230;26567;-75
2022/05/08 00:45:41;;;;;;;2.55;2.30;;;14.40;85.70;;;;;;626216;230;26555;-75
2022/05/08 00:48:09;;;;;;;2.50;2.30;;;14.40;84.30;;;;;;626238;230;26562;-75
2022/05/08 00:50:37;;;;;;;2.67;2.47;;;14.40;83.70;;;;;;626256;230;26575;-76
2022/05/08 00:53:04;;;;;;;2.50;2.30;;;14.40;83.60;;;;;;626210;226;26539;-75
2022/05/08 00:55:31;;;;;;;2.50;2.08;;;14.40;82.60;;;;;;627801;227;26557;-75
2022/05/08 00:58:00;;;;;;;2.62;2.42;;;14.40;82.20;;;;;;627527;229;26862;-75
2022/05/08 01:00:27;;;;;;;2.50;2.10;;;14.40;80.50;;;;;;627131;229;26804;-75
2022/05/08 01:02:54;;;;;;;2.20;2.10;;;14.30;80.40;;;;;;627154;229;26776;-75
2022/05/08 01:05:21;;;;;;;2.30;2.10;;;14.40;79.50;;;;;;626916;229;26617;-77
2022/05/08 01:07:48;;;;;;;2.25;2.05;;;14.30;78.90;;;;;;626810;229;26861;-76
2022/05/08 01:10:16;;;;;;;2.42;2.22;;;14.30;78.00;;;;;;626722;229;26622;-75
2022/05/08 01:12:45;;;;;;;3.70;2.22;;;14.30;77.00;;;;;;626663;229;27116;-76
2022/05/08 01:15:15;;;;;;;2.30;2.10;;;14.00;77.80;;;;;;626518;229;26563;-75
2022/05/08 01:17:42;;;;;;;2.15;1.83;;;14.00;77.80;;;;;;626566;229;26769;-75
2022/05/08 01:20:11;;;;;;;2.30;2.20;;;14.00;78.80;;;;;;626554;229;26552;-75
2022/05/08 01:22:38;;;;;;;2.20;2.10;;;13.90;79.00;;;;;;626520;229;26797;-75
2022/05/08 01:25:06;;;;;;;2.45;2.25;;;13.90;79.70;;;;;;626550;229;26556;-76
2022/05/08 01:27:33;;;;;;;2.22;2.12;;;13.90;80.20;;;;;;626597;229;26577;-76
2022/05/08 01:30:01;;;;;;;1.90;1.70;;;13.90;81.40;;;;;;626473;229;26799;-75
2022/05/08 01:32:28;;;;;;;1.90;1.80;;;13.80;81.70;;;;;;626204;230;26578;-76
2022/05/08 01:34:56;;;;;;;2.37;2.17;;;13.70;82.60;;;;;;626198;230;26810;-75
2022/05/08 01:37:24;;;;;;;2.20;2.00;;;13.50;85.90;;;;;;626220;229;26555;-75
2022/05/08 01:39:52;;;;;;;2.33;2.03;;;13.40;86.90;;;;;;626250;230;26603;-75
2022/05/08 01:42:20;;;;;;;2.05;1.90;;;13.30;87.60;;;;;;626185;227;26591;-77
2022/05/08 01:44:48;;;;;;;1.90;1.80;;;13.30;88.60;;;;;;626217;230;26598;-75
2022/05/08 01:49:48;;;;;;;1.73;1.62;;;13.30;89.20;;;;;;626214;230;26572;-75
2022/05/08 01:52:15;;;;;;;3.55;1.87;;;13.20;90.00;;;;;;626142;230;26859;-75
2022/05/08 01:54:42;;;;;;;3.65;1.90;;;13.20;90.50;;;;;;626151;230;26567;-75
2022/05/08 01:57:10;;;;;;;1.60;1.50;;;13.10;90.90;;;;;;626233;229;26931;-74
2022/05/08 01:59:38;;;;;;;2.20;2.10;;;13.10;91.50;;;;;;626186;230;27191;-75
2022/05/08 02:02:06;;;;;;;2.00;1.90;;;13.00;91.40;;;;;;626048;230;26855;-76
2022/05/08 02:04:33;;;;;;;2.28;2.00;;;13.10;91.70;;;;;;626064;230;26779;-75
2022/05/08 02:07:00;;;;;;;2.10;1.90;;;13.10;92.40;;;;;;627657;227;26558;-77
2022/05/08 02:09:27;;;;;;;1.90;1.80;;;13.00;91.60;;;;;;627490;229;26850;-76
2022/05/08 02:11:54;;;;;;;2.25;2.08;;;13.10;91.60;;;;;;627187;226;26571;-76
2022/05/08 02:14:22;;;;;;;1.85;1.75;;;13.10;93.00;;;;;;627180;229;26815;-75
2022/05/08 02:16:49;;;;;;;2.25;2.05;;;13.10;93.00;;;;;;626911;229;26845;-75
2022/05/08 02:19:18;;;;;;;2.55;1.77;;;13.10;92.60;;;;;;626892;229;26572;-74
2022/05/08 02:21:45;;;;;;;2.47;1.77;;;13.10;93.10;;;;;;626803;226;26599;-75
2022/05/08 02:24:13;;;;;;;1.90;1.80;;;13.20;92.50;;;;;;626746;228;26591;-76
2022/05/08 02:26:41;;;;;;;1.73;1.62;;;13.10;92.10;;;;;;626575;229;26519;-74
2022/05/08 02:29:08;;;;;;;2.00;1.80;;;13.10;92.10;;;;;;626525;229;26549;-75
2022/05/08 02:31:36;;;;;;;2.15;2.00;;;13.10;92.50;;;;;;626508;225;26571;-75
2022/05/08 02:34:02;;;;;;;1.85;1.77;;;13.10;91.60;;;;;;626493;229;26785;-76
2022/05/08 02:36:29;;;;;;;1.83;1.73;;;13.10;92.40;;;;;;626516;229;26558;-75
2022/05/08 02:38:58;;;;;;;1.92;1.83;;;13.20;93.10;;;;;;626567;229;26627;-75
2022/05/08 02:41:26;;;;;;;1.70;1.60;;;13.20;92.00;;;;;;626433;229;26585;-74
2022/05/08 02:43:54;;;;;;;2.00;1.90;;;13.20;91.70;;;;;;626271;230;26623;-76
2022/05/08 02:46:22;;;;;;;2.72;2.00;;;13.10;92.30;;;;;;626283;230;26556;-75
2022/05/08 02:48:49;;;;;;;2.00;1.80;;;13.10;92.20;;;;;;626336;229;26983;-75
2022/05/08 02:51:16;;;;;;;2.67;1.85;;;13.20;92.70;;;;;;626373;230;26598;-74
2022/05/08 02:53:43;;;;;;;3.03;2.00;;;13.20;92.90;;;;;;626317;230;26870;-76
2022/05/08 02:58:43;;;;;;;2.12;1.62;;;13.20;91.70;;;;;;626260;230;26559;-74
2022/05/08 03:01:11;;;;;;;1.65;1.50;;;13.20;91.90;;;;;;626220;230;26824;-74
2022/05/08 03:03:38;;;;;;;2.25;1.65;;;13.20;91.80;;;;;;626274;230;26583;-74
2022/05/08 03:06:05;;;;;;;3.00;1.80;;;13.20;91.70;;;;;;626264;230;27230;-75
2022/05/08 03:08:32;;;;;;;1.73;1.62;;;13.20;91.60;;;;;;626158;230;26566;-75
2022/05/08 03:13:35;;;;;;;1.70;1.70;;;13.10;92.10;;;;;;626223;230;26590;-75
2022/05/08 03:16:00;;;;;;;2.65;1.52;;;13.10;92.40;;;;;;626225;230;26552;-76
2022/05/08 03:18:27;;;;;;;1.70;1.60;;;13.10;92.10;;;;;;627670;227;26824;-75
2022/05/08 03:20:55;;;;;;;1.90;1.80;;;13.10;92.30;;;;;;627526;229;26586;-76
2022/05/08 03:23:22;;;;;;;1.60;1.60;;;13.10;92.20;;;;;;627199;229;26836;-75
2022/05/08 03:25:50;;;;;;;1.75;1.65;;;13.10;92.10;;;;;;627129;229;26551;-75
2022/05/08 03:28:16;;;;;;;1.98;1.87;;;13.00;92.30;;;;;;627084;229;26595;-74
2022/05/08 03:30:44;;;;;;;1.70;1.60;;;13.00;92.50;;;;;;627262;229;26582;-76
2022/05/08 03:33:12;;;;;;;1.60;1.50;;;13.00;92.60;;;;;;627241;229;26593;-76
2022/05/08 03:35:39;;;;;;;1.87;1.77;;;13.00;92.60;;;;;;627107;229;26579;-75
2022/05/08 03:38:07;;;;;;;1.90;1.80;;;13.00;92.70;;;;;;626979;229;26527;-76
2022/05/08 03:40:34;;;;;;;1.73;1.62;;;13.00;92.80;;;;;;626968;229;26530;-75
2022/05/08 03:43:01;;;;;;;1.70;1.60;;;12.90;93.00;;;;;;626566;229;26579;-75
2022/05/08 03:45:29;;;;;;;1.70;1.60;;;12.90;93.20;;;;;;626497;229;26804;-75
2022/05/08 03:47:56;;;;;;;1.90;1.80;;;12.90;93.40;;;;;;626498;229;26551;-75
2022/05/08 03:50:24;;;;;;;2.85;1.52;;;12.80;93.40;;;;;;626418;229;26539;-75
2022/05/08 03:52:52;;;;;;;1.80;1.70;;;12.70;92.80;;;;;;626307;229;26591;-76
2022/05/08 03:55:19;;;;;;;1.70;1.60;;;12.70;92.80;;;;;;626062;230;26609;-75
2022/05/08 03:57:47;;;;;;;1.70;1.60;;;12.80;92.20;;;;;;626156;230;26569;-75
2022/05/08 04:00:15;;;;;;;1.77;1.65;;;12.80;92.20;;;;;;626247;230;26566;-75
2022/05/08 04:02:42;;;;;;;2.03;1.80;;;12.80;92.10;;;;;;626228;226;26553;-75
2022/05/08 04:05:09;;;;;;;3.58;1.70;;;12.80;92.20;;;;;;626225;228;26839;-75
2022/05/08 04:07:37;;;;;;;1.60;1.50;;;12.70;92.00;;;;;;626302;230;26566;-74
2022/05/08 04:10:07;;;;;;;1.80;1.67;;;12.80;91.60;;;;;;626245;230;26564;-74
2022/05/08 04:12:34;;;;;;;1.83;1.73;;;12.80;91.60;;;;;;626243;226;26588;-76
2022/05/08 04:15:01;;;;;;;2.03;1.80;;;12.80;91.50;;;;;;626274;230;26887;-76
2022/05/08 04:17:28;;;;;;;1.70;1.60;;;12.70;91.20;;;;;;626238;230;26550;-75
2022/05/08 04:19:55;;;;;;;2.62;1.60;;;12.70;91.20;;;;;;626221;230;26962;-76
2022/05/08 04:24:57;;;;;;;1.83;1.73;;;12.70;91.10;;;;;;626208;230;26563;-75
2022/05/08 04:27:23;;;;;;;2.47;1.85;;;12.70;90.90;;;;;;626164;230;26548;-76
2022/05/08 04:29:50;;;;;;;1.95;1.77;;;12.80;90.60;;;;;;627501;227;26558;-76
2022/05/08 04:32:17;;;;;;;2.00;1.90;;;12.70;89.80;;;;;;627496;227;26832;-75
2022/05/08 04:34:44;;;;;;;1.98;1.85;;;12.60;88.70;;;;;;627232;229;26559;-77
2022/05/08 04:37:11;;;;;;;2.08;1.87;;;12.60;87.60;;;;;;627170;227;26910;-74
2022/05/08 04:39:39;;;;;;;2.60;1.85;;;12.60;88.10;;;;;;626919;229;26629;-73
2022/05/08 04:42:07;;;;;;;1.83;1.67;;;12.50;87.30;;;;;;626897;229;27247;-75
2022/05/08 04:44:34;;;;;;;1.98;1.70;;;12.50;87.40;;;;;;626873;229;26611;-76
2022/05/08 04:47:02;;;;;;;2.03;1.80;;;12.60;86.60;;;;;;626749;229;26822;-75
2022/05/08 04:49:29;;;;;;;1.60;1.60;;;12.70;86.80;;;;;;626587;228;26563;-76
2022/05/08 04:51:56;;;;;;;1.70;1.60;;;12.80;86.60;;;;;;626402;229;26796;-75
2022/05/08 04:54:24;;;;;;;2.58;1.92;;;12.80;86.30;;;;;;626560;229;26577;-75
2022/05/08 04:56:52;;;;;;;3.35;1.87;;;12.70;85.90;;;;;;626542;229;26902;-75
2022/05/08 04:59:18;;;;;;;2.92;1.70;;;12.50;86.10;;;;;;626457;229;26555;-75
2022/05/08 05:01:45;;;;;;;2.50;1.83;;;12.40;87.30;;;;;;626575;229;26779;-75
2022/05/08 05:04:13;;;;;;;1.87;1.77;;;12.30;86.60;;;;;;626507;229;26580;-75
2022/05/08 05:06:43;;;;;;;2.55;1.70;;;12.30;87.00;;;;;;626272;229;26575;-75
2022/05/08 05:09:08;;;;;;;2.92;1.80;;;12.30;87.20;;;;;;626277;230;26567;-76
2022/05/08 05:11:35;;;;;;;1.98;1.73;;;12.20;87.10;;;;;;626220;226;26540;-76
2022/05/08 05:14:03;;;;;;;2.03;1.70;;;12.40;87.30;;;;;;626261;228;26795;-77
2022/05/08 05:16:30;;;;;;;1.90;1.80;;;12.40;86.20;;;;;;626256;230;26559;-77
2022/05/08 05:18:57;;;;;;;1.73;1.62;;;12.30;86.60;;;;;;626395;230;26870;-76
2022/05/08 05:21:24;;;;;;;1.70;1.60;;;12.40;85.40;;;;;;626232;230;26559;-76
2022/05/08 05:23:51;;;;;;;3.50;1.80;;;12.30;84.30;;;;;;626237;230;26862;-76
2022/05/08 05:26:19;;;;;;;1.65;1.55;;;12.30;83.80;;;;;;626286;230;26554;-77
2022/05/08 05:28:47;;;;;;;2.55;1.73;;;12.40;82.00;;;;;;626302;230;26854;-76
2022/05/08 05:31:14;;;;;;;1.90;1.80;;;12.40;82.00;;;;;;626093;230;26796;-76
2022/05/08 05:33:42;;;;;;;2.78;1.62;;;12.50;82.00;;;;;;626258;230;26583;-77
2022/05/08 05:36:09;;;;;;;1.98;1.70;;;12.60;80.80;;;;;;626245;229;26779;-76
2022/05/08 05:38:36;;;;;;;2.97;1.90;;;12.60;80.80;;;;;;626221;230;26630;-77
2022/05/08 05:41:03;;;;;;;2.00;1.80;;;12.70;80.70;;;;;;627316;227;27214;-76
2022/05/08 05:43:31;;;;;;;2.33;1.58;;;12.90;80.20;;;;;;627545;225;26638;-76
2022/05/08 05:48:31;;;;;;;2.85;1.85;;;12.70;79.60;;;;;;627153;229;26572;-76
2022/05/08 05:50:58;;;;;;;4.50;1.77;;;12.60;80.00;;;;;;626872;229;26889;-77
2022/05/08 05:53:26;;;;;;;2.28;1.65;;;12.80;79.10;;;;;;626973;229;26600;-75
2022/05/08 05:55:54;;;;;;;2.10;1.67;;;12.90;78.70;;;;;;621158;229;26600;-73
2022/05/08 05:58:22;;;;;;;2.00;1.80;;;13.10;78.60;;;;;;617807;233;26561;-74
2022/05/08 06:00:50;;;;;;;2.33;1.65;;;13.20;76.80;;;;;;617751;233;26543;-77
2022/05/08 06:03:17;;;;;;;4.22;1.85;;;13.20;77.20;;;;;;617698;233;26834;-75
2022/05/08 06:05:44;;;;;;;1.87;1.75;;;13.30;76.90;;;;;;617700;233;26546;-75
2022/05/08 06:08:11;;;;;;;1.62;1.52;;;13.50;76.50;;;;;;617734;233;27204;-75
2022/05/08 06:10:38;;;;;;;2.35;1.77;;;13.60;76.10;;;;;;617687;233;26570;-76
2022/05/08 06:13:07;;;;;;;3.12;1.77;;;13.70;75.00;;;;;;617704;233;26578;-75
2022/05/08 06:15:35;;;;;;;2.53;1.70;;;13.80;73.60;;;;;;617775;232;26526;-75
2022/05/08 06:18:02;;;;;;;2.28;1.75;;;13.80;73.60;;;;;;617437;233;26847;-74
2022/05/08 06:20:32;;;;;;;2.78;1.70;;;13.90;73.00;;;;;;617506;233;26623;-74
2022/05/08 06:22:57;;;;;;;1.67;1.58;;;14.10;72.70;;;;;;619698;230;26628;-75
2022/05/08 06:25:25;;;;;;;2.00;1.52;;;14.20;70.60;;;;;;621551;230;26599;-75
2022/05/08 06:27:53;;;;;;;4.20;2.00;;;14.60;70.00;;;;;;622527;230;26608;-78
2022/05/08 06:30:21;;;;;;;6.07;2.00;;;14.80;68.80;;;;;;621825;230;26651;-77
2022/05/08 06:32:49;;;;;;;4.70;2.35;;;14.80;68.70;;;;;;623504;230;26624;-77
2022/05/08 06:35:16;;;;;;;5.50;1.90;;;14.90;68.30;;;;;;623284;230;26537;-77
2022/05/08 06:37:43;;;;;;;6.25;1.90;;;15.10;68.10;;;;;;621909;230;26843;-77
2022/05/08 06:40:11;;;;;;;2.50;1.67;;;15.20;68.40;;;;;;623139;230;26558;-76
2022/05/08 06:42:38;;;;;;;7.30;2.10;;;14.80;68.40;;;;;;623608;230;26590;-77
2022/05/08 06:45:07;;;;;;;4.90;2.00;;;15.20;66.70;;;;;;621489;230;26930;-77
2022/05/08 06:47:34;;;;;;;4.80;1.85;;;15.20;66.70;;;;;;623146;230;26618;-76
2022/05/08 06:50:01;;;;;;;5.20;1.87;;;15.10;68.10;;;;;;623794;230;26819;-77
2022/05/08 06:52:28;;;;;;;4.72;2.08;;;15.30;68.20;;;;;;625077;224;26593;-77
2022/05/08 06:54:56;;;;;;;6.87;2.20;;;15.20;67.00;;;;;;623603;229;26817;-77
2022/05/08 06:57:23;;;;;;;5.68;2.17;;;15.30;67.40;;;;;;624549;229;26535;-77
2022/05/08 07:02:23;;;;;;;5.62;2.33;;;15.50;68.00;;;;;;623802;229;26820;-77
2022/05/08 07:04:50;;;;;;;8.35;2.28;;;15.60;68.50;;;;;;622893;229;26594;-74
2022/05/08 07:07:20;;;;;;;5.40;2.03;;;15.40;68.40;;;;;;624680;229;26575;-74
2022/05/08 07:09:45;;;;;;;4.62;2.10;;;15.30;69.80;;;;;;624004;229;26813;-75
2022/05/08 07:12:12;;;;;;;6.78;2.15;;;15.10;69.90;;;;;;622557;228;26586;-76
2022/05/08 07:14:42;;;;;;;6.47;2.05;;;15.20;70.30;;;;;;624333;229;27100;-75
2022/05/08 07:17:07;;;;;;;6.90;2.17;;;15.30;70.40;;;;;;624634;229;26525;-77
2022/05/08 07:19:34;;;;;;;9.15;2.30;;;15.30;69.60;;;;;;624681;229;26536;-76
2022/05/08 07:22:02;;;;;;;8.15;2.25;;;15.50;68.80;;;;;;623615;227;26591;-73
2022/05/08 07:24:29;;;;;;;5.40;2.37;;;15.50;68.80;;;;;;624800;230;26539;-73
2022/05/08 07:26:57;;;;;;;7.00;2.45;;;15.50;69.70;;;;;;624725;230;26880;-74
2022/05/08 07:29:24;;;;;;;14.27;3.17;;;15.30;69.50;;;;;;624815;230;26545;-74
2022/05/08 07:31:53;;;;;;;6.60;2.50;;;15.50;69.90;;;;;;624780;230;26827;-75
2022/05/08 07:36:51;;;;;;;132.20;25.40;;;15.70;68.90;;;;;;624795;230;26638;-71
2022/05/08 07:39:19;;;;;;;1566.50;159.40;;;15.80;67.40;;;;;;624808;230;26831;-72
2022/05/08 07:41:46;;;;;;;1999.90;270.45;;;15.70;65.80;;;;;;624803;230;26551;-74
2022/05/08 07:44:14;;;;;;;825.60;63.13;;;15.60;66.90;;;;;;624816;230;26571;-79
2022/05/08 07:46:42;;;;;;;71.43;20.77;;;15.70;66.70;;;;;;624849;230;26555;-80
2022/05/08 07:49:10;;;;;;;39.78;15.93;;;15.70;66.40;;;;;;624776;230;26539;-79
2022/05/08 07:51:38;;;;;;;59.85;19.67;;;15.70;66.90;;;;;;624745;227;26615;-77
2022/05/08 07:54:06;;;;;;;54.00;19.02;;;15.80;65.00;;;;;;624821;230;26543;-76
2022/05/08 07:56:34;;;;;;;36.45;13.07;;;15.80;65.00;;;;;;624726;230;26580;-77
2022/05/08 07:59:02;;;;;;;57.95;18.60;;;15.90;64.70;;;;;;624896;230;26567;-78
2022/05/08 08:01:30;;;;;;;44.45;15.77;;;15.70;63.70;;;;;;624766;230;26576;-76
2022/05/08 08:03:58;;;;;;;49.63;15.48;;;15.80;63.80;;;;;;625606;228;26610;-77
2022/05/08 08:06:26;;;;;;;26.80;10.85;;;16.00;64.30;;;;;;626118;229;26555;-77
2022/05/08 08:08:54;;;;;;;29.15;11.23;;;15.90;64.70;;;;;;626352;228;26536;-75
2022/05/08 08:11:21;;;;;;;31.20;11.48;;;15.90;64.70;;;;;;627075;229;26563;-76
2022/05/08 08:13:48;;;;;;;30.00;9.68;;;16.00;65.70;;;;;;626963;229;26839;-76
2022/05/08 08:16:16;;;;;;;13.73;5.80;;;15.90;64.50;;;;;;626858;229;26853;-76
2022/05/08 08:18:44;;;;;;;14.63;4.53;;;15.70;64.90;;;;;;626890;229;26578;-75
2022/05/08 08:21:11;;;;;;;11.82;5.05;;;15.60;65.40;;;;;;626860;227;26837;-75
2022/05/08 08:23:38;;;;;;;13.27;3.95;;;15.70;65.80;;;;;;626547;227;26608;-75
2022/05/08 08:26:05;;;;;;;15.63;4.40;;;15.60;66.70;;;;;;626562;229;26784;-75
2022/05/08 08:28:32;;;;;;;11.93;3.80;;;15.70;67.70;;;;;;626563;229;26548;-76
2022/05/08 08:31:00;;;;;;;9.95;3.67;;;15.90;68.10;;;;;;626596;229;27185;-75
2022/05/08 08:33:27;;;;;;;10.15;3.50;;;16.00;67.60;;;;;;626521;229;26602;-75
2022/05/08 08:35:55;;;;;;;10.00;3.35;;;15.90;68.20;;;;;;626544;228;26814;-75
2022/05/08 08:38:21;;;;;;;6.75;2.95;;;16.00;68.50;;;;;;626522;229;26544;-75
2022/05/08 08:40:48;;;;;;;7.05;2.97;;;16.20;68.20;;;;;;626314;229;27060;-75
2022/05/08 08:43:17;;;;;;;5.80;2.45;;;16.20;66.10;;;;;;626246;230;26583;-75
2022/05/08 08:48:27;;;;;;;9.38;3.25;;;16.00;67.00;;;;;;626280;230;26811;-76
2022/05/08 08:50:53;;;;;;;6.18;3.10;;;16.10;67.00;;;;;;626021;230;26603;-76
2022/05/08 08:53:21;;;;;;;7.28;3.10;;;16.30;66.00;;;;;;626208;230;26814;-76
2022/05/08 08:55:48;;;;;;;7.10;3.12;;;16.30;65.50;;;;;;626250;228;26557;-76
2022/05/08 08:58:16;;;;;;;5.62;2.60;;;16.20;65.60;;;;;;626231;230;26832;-76
2022/05/08 09:00:46;;;;;;;4.87;2.65;;;16.30;65.00;;;;;;626285;230;26561;-76
2022/05/08 09:03:11;;;;;;;7.82;3.05;;;16.30;65.00;;;;;;626035;230;26574;-76
2022/05/08 09:05:38;;;;;;;6.75;2.78;;;16.30;64.30;;;;;;626199;227;26597;-76
2022/05/08 09:08:05;;;;;;;6.03;2.92;;;16.40;63.70;;;;;;626204;230;26804;-75
2022/05/08 09:10:35;;;;;;;7.12;2.50;;;16.50;64.00;;;;;;626164;228;26933;-75
2022/05/08 09:13:03;;;;;;;7.45;2.60;;;16.60;65.10;;;;;;626106;230;27261;-75
2022/05/08 09:15:32;;;;;;;5.00;2.30;;;16.60;63.80;;;;;;627031;227;26638;-72
2022/05/08 09:17:59;;;;;;;12.15;2.97;;;16.60;63.70;;;;;;627454;229;26602;-66
2022/05/08 09:20:30;;;;;;;9.98;2.90;;;16.70;63.00;;;;;;627362;229;26560;-67
2022/05/08 09:23:01;;;;;;;11.35;2.62;;;16.60;62.90;;;;;;627024;229;26835;-67
2022/05/08 09:25:45;;;;;;;13.02;3.05;;;16.70;62.90;;;;;;626892;229;26540;-65
2022/05/08 09:28:14;;;;;;;5.87;2.70;;;16.50;63.80;;;;;;626870;229;26615;-66
2022/05/08 09:30:55;;;;;;;7.68;2.83;;;16.70;62.80;;;;;;626824;229;26629;-65
2022/05/08 09:33:24;;;;;;;6.20;2.67;;;16.80;61.70;;;;;;626758;229;26634;-65
2022/05/08 09:35:51;;;;;;;4.40;2.05;;;16.80;61.70;;;;;;626592;229;26815;-66
2022/05/08 09:38:19;;;;;;;6.57;2.90;;;16.80;62.60;;;;;;626579;229;26548;-66
2022/05/08 09:40:46;;;;;;;4.93;2.40;;;16.90;62.30;;;;;;626603;229;26795;-66
2022/05/08 09:43:29;;;;;;;4.20;2.30;;;16.90;60.80;;;;;;624960;229;26579;-66
2022/05/08 09:45:57;;;;;;;7.60;2.78;;;16.90;59.60;;;;;;626627;229;26784;-66
2022/05/08 09:48:23;;;;;;;5.65;2.50;;;17.00;60.00;;;;;;626579;228;26527;-66
2022/05/08 09:50:50;;;;;;;5.78;2.65;;;17.00;59.60;;;;;;626440;229;26806;-65
2022/05/08 09:53:18;;;;;;;5.15;2.12;;;17.00;58.90;;;;;;626241;230;26586;-66
2022/05/08 09:55:46;;;;;;;7.35;2.15;;;16.90;59.30;;;;;;626247;230;26634;-66
2022/05/08 09:58:14;;;;;;;5.70;2.28;;;17.00;59.10;;;;;;626248;230;26528;-66
2022/05/08 10:00:42;;;;;;;6.22;2.28;;;17.00;59.10;;;;;;626257;230;26526;-66
2022/05/08 10:03:09;;;;;;;6.35;2.40;;;17.10;58.60;;;;;;626228;230;26584;-66
2022/05/08 10:05:37;;;;;;;6.32;2.42;;;17.10;58.60;;;;;;626299;230;27217;-66
2022/05/08 10:08:03;;;;;;;8.38;3.00;;;17.10;58.10;;;;;;626542;228;26531;-66
2022/05/08 10:15:36;;;;;;;4.00;2.37;;;17.10;57.20;;;;;;626656;230;26508;-66
2022/05/08 10:18:15;;;;;;;4.15;2.15;;;17.00;56.70;;;;;;626683;230;26822;-66
2022/05/08 10:20:55;;;;;;;4.03;1.90;;;17.30;54.60;;;;;;626513;230;26550;-66
2022/05/08 10:23:35;;;;;;;3.95;2.00;;;17.30;55.00;;;;;;626251;230;26581;-66
2022/05/08 10:26:12;;;;;;;3.95;1.98;;;17.30;55.00;;;;;;626268;230;27203;-66
2022/05/08 10:28:51;;;;;;;5.60;2.37;;;17.30;55.70;;;;;;628099;228;26546;-66
2022/05/08 10:31:43;;;;;;;5.68;2.15;;;17.20;56.00;;;;;;627333;229;26605;-66
2022/05/08 10:34:11;;;;;;;4.50;2.20;;;17.20;56.50;;;;;;626346;229;26582;-66
2022/05/08 10:36:40;;;;;;;5.45;2.28;;;17.20;56.40;;;;;;626809;229;26572;-66
2022/05/08 10:39:19;;;;;;;2.17;1.60;;;17.10;56.30;;;;;;626748;229;26847;-66
2022/05/08 10:41:49;;;;;;;5.70;2.40;;;17.20;55.50;;;;;;626814;227;26643;-66
2022/05/08 10:44:26;;;;;;;3.65;1.70;;;17.40;55.10;;;;;;626792;229;26560;-66
2022/05/08 10:46:53;;;;;;;3.92;2.33;;;17.40;53.70;;;;;;626578;229;26813;-66
2022/05/08 10:49:20;;;;;;;3.45;2.20;;;17.40;53.40;;;;;;625863;229;26557;-66
2022/05/08 10:51:47;;;;;;;3.42;1.83;;;17.50;52.90;;;;;;626610;227;26780;-66
2022/05/08 10:54:15;;;;;;;3.40;1.77;;;17.60;52.20;;;;;;626651;229;26528;-66
2022/05/08 10:56:46;;;;;;;2.08;1.77;;;17.60;52.00;;;;;;626657;229;26814;-66
2022/05/08 10:59:13;;;;;;;4.95;2.12;;;17.60;52.00;;;;;;626683;229;26555;-66
2022/05/08 11:01:41;;;;;;;5.50;2.12;;;17.70;51.60;;;;;;626598;229;26543;-66
2022/05/08 11:04:10;;;;;;;4.12;1.85;;;17.60;51.10;;;;;;626050;229;26560;-66
2022/05/08 11:06:37;;;;;;;5.03;2.05;;;17.70;52.10;;;;;;626169;230;26607;-66
2022/05/08 11:09:04;;;;;;;4.55;1.77;;;17.70;51.90;;;;;;626261;230;26602;-66
2022/05/08 11:11:31;;;;;;;5.07;2.00;;;17.80;51.60;;;;;;626233;229;26547;-66
2022/05/08 11:13:58;;;;;;;2.12;1.55;;;17.90;51.50;;;;;;626294;230;26793;-66
2022/05/08 11:16:33;;;;;;;2.42;1.90;;;18.00;51.50;;;;;;626314;230;26551;-66
2022/05/08 11:18:55;;;;;;;2.95;1.90;;;18.10;50.50;;;;;;626086;230;26809;-66
2022/05/08 11:21:23;;;;;;;3.30;2.00;;;18.10;50.00;;;;;;626132;230;26801;-66
2022/05/08 11:23:50;;;;;;;2.72;1.83;;;18.10;49.90;;;;;;626289;230;26606;-66
2022/05/08 11:26:17;;;;;;;5.72;2.28;;;18.10;50.30;;;;;;626228;230;27104;-66
2022/05/08 11:28:49;;;;;;;4.50;2.00;;;18.10;50.20;;;;;;626272;230;26569;-66
2022/05/08 11:31:16;;;;;;;3.40;1.83;;;18.10;49.80;;;;;;626307;230;26790;-66
2022/05/08 11:36:25;;;;;;;3.75;1.95;;;18.30;49.70;;;;;;626256;230;26820;-66
2022/05/08 11:39:02;;;;;;;3.05;1.95;;;18.40;48.80;;;;;;627594;227;26789;-66
2022/05/08 11:41:35;;;;;;;4.12;1.73;;;18.50;47.90;;;;;;628039;229;26577;-66
2022/05/08 11:44:03;;;;;;;10.52;4.03;;;18.50;47.90;;;;;;627509;228;26527;-66
2022/05/08 11:46:34;;;;;;;3.25;1.67;;;18.50;47.90;;;;;;627175;229;26554;-65
2022/05/08 11:49:00;;;;;;;3.12;2.20;;;18.60;48.60;;;;;;627149;229;26825;-66
2022/05/08 11:51:28;;;;;;;3.37;1.80;;;18.40;47.50;;;;;;627170;229;26641;-66
2022/05/08 11:53:55;;;;;;;3.10;1.80;;;18.30;48.00;;;;;;626896;229;26601;-66
2022/05/08 11:56:27;;;;;;;3.40;1.90;;;18.40;47.80;;;;;;627150;229;26602;-66
2022/05/08 11:58:55;;;;;;;2.85;1.83;;;18.40;46.50;;;;;;626876;229;26535;-67
2022/05/08 12:01:25;;;;;;;4.10;1.75;;;18.40;46.50;;;;;;626507;229;26540;-67
2022/05/08 12:03:53;;;;;;;4.93;1.92;;;18.50;46.70;;;;;;626575;229;26650;-66
2022/05/08 12:06:21;;;;;;;4.32;1.77;;;18.50;46.70;;;;;;626620;229;26564;-66
2022/05/08 12:08:48;;;;;;;3.17;1.87;;;18.50;46.40;;;;;;626596;229;26564;-67
2022/05/08 12:11:28;;;;;;;3.35;1.95;;;18.50;46.20;;;;;;626552;229;26823;-66
2022/05/08 12:13:59;;;;;;;4.72;1.98;;;18.50;46.20;;;;;;626551;229;26741;-66
2022/05/08 12:16:28;;;;;;;5.70;1.87;;;18.70;45.30;;;;;;626206;230;27090;-66
2022/05/08 12:19:06;;;;;;;3.72;2.00;;;18.60;44.90;;;;;;626272;228;26556;-66
2022/05/08 12:21:34;;;;;;;4.78;1.87;;;18.70;44.40;;;;;;626266;227;26820;-66
2022/05/08 12:24:01;;;;;;;2.55;1.30;;;18.80;43.50;;;;;;626284;230;26613;-66
2022/05/08 12:26:28;;;;;;;3.47;1.90;;;19.10;43.60;;;;;;626001;230;26846;-66
2022/05/08 12:28:56;;;;;;;4.07;1.73;;;19.60;43.30;;;;;;626385;230;26614;-67
2022/05/08 12:31:24;;;;;;;4.75;1.83;;;19.80;41.90;;;;;;626314;229;26511;-66
2022/05/08 12:33:52;;;;;;;2.95;1.62;;;19.90;41.90;;;;;;626212;227;26552;-67
2022/05/08 12:36:19;;;;;;;3.10;1.50;;;19.90;41.90;;;;;;626282;230;26607;-66
2022/05/08 12:38:46;;;;;;;3.33;1.98;;;20.10;41.20;;;;;;626022;230;26832;-67
2022/05/08 12:41:14;;;;;;;2.53;1.50;;;20.30;40.80;;;;;;626278;230;26543;-66
2022/05/08 12:43:41;;;;;;;4.37;2.00;;;20.50;39.90;;;;;;626284;230;26823;-67
2022/05/08 12:46:08;;;;;;;3.28;1.70;;;20.60;39.80;;;;;;626270;230;26559;-66
2022/05/08 12:48:35;;;;;;;2.95;1.65;;;20.50;39.40;;;;;;626255;230;26857;-66
2022/05/08 12:51:04;;;;;;;4.70;1.77;;;20.90;39.00;;;;;;627605;227;26598;-66
2022/05/08 12:53:30;;;;;;;1.98;1.45;;;21.20;38.90;;;;;;627489;229;26861;-66
2022/05/08 12:55:57;;;;;;;5.43;1.90;;;21.20;38.90;;;;;;627244;229;26565;-66
2022/05/08 13:00:58;;;;;;;3.62;1.50;;;21.60;37.90;;;;;;626815;229;26606;-67
2022/05/08 13:03:25;;;;;;;4.85;1.77;;;22.30;36.60;;;;;;625101;225;26876;-67
2022/05/08 13:05:52;;;;;;;4.85;1.70;;;22.20;35.10;;;;;;626872;229;26632;-66
2022/05/08 13:08:19;;;;;;;3.62;1.80;;;22.60;33.40;;;;;;626727;228;26837;-66
2022/05/08 13:10:46;;;;;;;4.43;1.92;;;22.80;33.10;;;;;;626556;229;26543;-66
2022/05/08 13:13:14;;;;;;;3.60;1.55;;;22.80;31.40;;;;;;626562;229;26824;-66
2022/05/08 13:15:41;;;;;;;5.75;1.92;;;22.90;31.00;;;;;;626627;229;26554;-66
2022/05/08 13:18:08;;;;;;;4.20;1.40;;;23.20;31.10;;;;;;626537;229;26716;-67
2022/05/08 13:20:36;;;;;;;3.22;1.60;;;24.20;27.80;;;;;;626552;229;26575;-66